Hlavní strana
METAR-TAF:

METAR-TAF

Letiště :

Visby, Gotland, Švédsko

zeměpisná šířka: 57-40N, zeměpisná délka: 018-21E, výška: 51 m

Aktuální stav počasí

Zpráva byla vytvořena před 42 minutami, v 14:20 UTC
Západoseverozápadní vítr 9 kt
Teplota 3°C
Vlhkost vzduchu 70%
Tlak 1019 hPa
Viditelnost 10 km a více
Žádná oblačnost pod 1500 m, nevyskytují se cumulonimby.

METAR: ESSV 191420Z 30009KT CAVOK 03/M02 Q1019 R03/09//95

Čas: 16:02 (15:02 UTC)

Předpověď počasí

Zpráva byla vytvořena před 32 minutami, v 14:30 UTC
Předpověď platná od 19 v 15 UTC do 19 v 23 UTC
Západoseverozápadní vítr 9 kt
Viditelnost 10 km a více
Žádná oblačnost pod 1500 m, nevyskytují se cumulonimby.

TAF: ESSV 191430Z 1915/1923 29009KT CAVOK

Stav a předpovědi počasí z více než 4 000 letišť (zprávy METAR a TAF).

Červené a žluté tečky na mapě představují dostupné meteorologické stanice.

Když kurzor umístíte na tečku, zobrazí se název stanice.

Pak kliknutím zobrazíte stav a předpověď počasí.

Chcete-li změnit mapu, kliknutím na zelené tlačítko se znaménkem +mapu přiblížíte, kliknutím na zelené tlačítko se znaménkem – mapu oddálíte a kliknutím na zelené šipky přejdete na sousední mapy.


METAR-TAF: